Time;durP1;ratioP1;P1;durP2;ratioP2;P2;SDS_P1;SDS_P2;PMS_P1;PMS_P2;Temp;Humidity;BMP_temperature;BMP_pressure;BME280_temperature;BME280_humidity;BME280_pressure;Samples;Min_cycle;Max_cycle;Signal;HPM_P1;HPM_P2
2024/04/11 00:01:15;;;;;;;474.10;80.13;;;12.90;41.20;;;;;;5468902;26;20071;-70
2024/04/11 00:03:46;;;;;;;684.85;160.35;;;12.90;41.30;;;;;;5451989;26;19999;-70
2024/04/11 00:06:18;;;;;;;507.67;88.35;;;12.90;41.30;;;;;;5453524;26;20006;-71
2024/04/11 00:08:49;;;;;;;486.08;82.53;;;12.90;41.30;;;;;;5465653;26;20038;-69
2024/04/11 00:11:18;;;;;;;470.33;77.50;;;12.90;41.90;;;;;;5459098;26;21281;-70
2024/04/11 00:13:49;;;;;;;687.70;160.80;;;12.90;41.30;;;;;;5449444;26;20001;-70
2024/04/11 00:16:18;;;;;;;494.63;84.40;;;12.90;41.30;;;;;;5454464;26;20030;-70
2024/04/11 00:18:49;;;;;;;471.00;85.55;;;12.80;41.40;;;;;;5459238;26;20013;-71
2024/04/11 00:21:23;;;;;;;547.00;100.97;;;12.80;41.40;;;;;;5457768;26;20659;-70
2024/04/11 00:23:54;;;;;;;524.47;102.85;;;12.80;41.40;;;;;;5439093;25;20054;-70
2024/04/11 00:26:23;;;;;;;473.25;79.07;;;12.80;41.40;;;;;;5461440;26;20006;-71
2024/04/11 00:28:54;;;;;;;484.23;81.18;;;12.80;41.50;;;;;;5423538;26;20013;-70
2024/04/11 00:31:23;;;;;;;476.33;79.47;;;12.80;42.00;;;;;;5452039;26;20074;-70
2024/04/11 00:34:12;;;;;;;513.05;102.38;;;12.80;41.50;;;;;;5460606;25;20172;-69
2024/04/11 00:36:45;;;;;;;508.75;89.13;;;12.80;41.50;;;;;;5468231;26;20469;-69
2024/04/11 00:39:18;;;;;;;498.92;87.20;;;12.80;41.60;;;;;;5456243;26;20017;-70
2024/04/11 00:41:47;;;;;;;648.47;142.80;;;12.80;41.60;;;;;;5457048;26;20079;-70
2024/04/11 00:44:19;;;;;;;533.78;94.85;;;12.70;41.50;;;;;;5434107;26;20002;-70
2024/04/11 00:46:51;;;;;;;476.27;79.63;;;12.70;41.60;;;;;;5469874;26;20074;-70
2024/04/11 00:49:23;;;;;;;485.17;82.28;;;12.70;41.60;;;;;;5462809;25;20017;-70
2024/04/11 00:51:54;;;;;;;491.45;93.97;;;12.60;41.60;;;;;;5442255;26;20192;-70
2024/04/11 00:54:25;;;;;;;490.27;82.85;;;12.60;41.80;;;;;;5465252;26;20013;-71
2024/04/11 00:56:57;;;;;;;482.73;81.80;;;12.60;41.70;;;;;;5469400;25;20074;-70
2024/04/11 00:59:30;;;;;;;473.90;79.72;;;12.60;41.80;;;;;;5434008;26;20476;-71
2024/04/11 01:01:58;;;;;;;476.00;79.75;;;12.50;41.80;;;;;;5437437;26;20005;-71
2024/04/11 01:04:30;;;;;;;508.85;88.60;;;12.50;41.90;;;;;;5416584;26;19998;-69
2024/04/11 01:07:06;;;;;;;497.08;86.00;;;12.50;41.80;;;;;;5451209;25;20018;-69
2024/04/11 01:09:38;;;;;;;603.88;120.40;;;12.50;41.90;;;;;;5454903;25;19999;-71
2024/04/11 01:12:07;;;;;;;496.20;85.43;;;12.60;41.80;;;;;;5447645;26;20057;-70
2024/04/11 01:14:38;;;;;;;505.02;86.43;;;12.60;41.80;;;;;;5464111;26;20020;-71
2024/04/11 01:17:06;;;;;;;477.15;79.82;;;12.60;41.80;;;;;;5450692;26;20020;-71
2024/04/11 01:19:37;;;;;;;621.45;127.18;;;12.50;41.70;;;;;;5434755;25;20452;-69
2024/04/11 01:22:10;;;;;;;479.13;80.85;;;12.60;41.80;;;;;;5466274;25;20012;-71
2024/04/11 01:24:44;;;;;;;468.67;79.40;;;12.50;41.80;;;;;;5466056;26;19998;-71
2024/04/11 01:27:14;;;;;;;467.20;78.65;;;12.50;41.80;;;;;;5460482;26;19998;-71
2024/04/11 01:29:46;;;;;;;678.95;153.25;;;12.50;41.90;;;;;;5440261;26;19999;-71
2024/04/11 01:32:14;;;;;;;465.90;76.35;;;12.50;41.90;;;;;;5444331;26;20079;-70
2024/04/11 01:34:44;;;;;;;480.33;79.25;;;12.50;41.90;;;;;;5449658;26;20064;-72
2024/04/11 01:37:13;;;;;;;475.52;78.30;;;12.40;42.00;;;;;;5407341;26;20010;-70
2024/04/11 01:39:48;;;;;;;736.55;172.05;;;12.40;42.00;;;;;;5437422;26;19998;-69
2024/04/11 01:42:18;;;;;;;488.95;81.32;;;12.30;42.00;;;;;;5449498;26;20011;-69
2024/04/11 01:44:49;;;;;;;515.25;88.13;;;12.20;42.00;;;;;;5461989;26;20002;-70
2024/04/11 01:47:17;;;;;;;485.30;80.45;;;12.20;42.00;;;;;;5425406;26;20405;-70
2024/04/11 01:49:48;;;;;;;671.33;150.45;;;12.20;42.00;;;;;;5451400;26;20325;-70
2024/04/11 01:52:16;;;;;;;474.63;79.75;;;12.20;42.10;;;;;;5466828;26;20089;-70
2024/04/11 01:54:50;;;;;;;477.45;80.80;;;12.10;42.10;;;;;;5468479;26;20006;-71
2024/04/11 01:57:18;;;;;;;471.27;77.40;;;12.10;42.10;;;;;;5462998;26;19998;-71
2024/04/11 01:59:53;;;;;;;663.85;149.30;;;12.10;42.30;;;;;;5450002;26;20043;-68
2024/04/11 02:02:21;;;;;;;;;;;12.00;42.30;;;;;;5432385;26;19998;-70
2024/04/11 02:04:54;;;;;;;559.70;105.32;;;12.00;42.20;;;;;;5452586;26;19930;-71
2024/04/11 02:07:23;;;;;;;485.90;79.75;;;11.90;42.30;;;;;;5449494;26;20812;-70
2024/04/11 02:09:57;;;;;;;491.58;93.80;;;11.90;42.30;;;;;;5422102;26;20014;-71
2024/04/11 02:12:26;;;;;;;487.30;81.60;;;11.90;42.20;;;;;;5453811;26;20013;-70
2024/04/11 02:14:58;;;;;;;490.00;80.57;;;11.90;42.10;;;;;;5422555;26;20472;-70
2024/04/11 02:17:26;;;;;;;480.63;78.55;;;11.90;42.10;;;;;;5420461;26;20477;-70
2024/04/11 02:19:59;;;;;;;474.42;84.93;;;11.90;42.10;;;;;;5445983;26;20925;-71
2024/04/11 02:22:27;;;;;;;472.92;77.50;;;11.90;42.10;;;;;;5443023;26;20417;-71
2024/04/11 02:25:01;;;;;;;468.75;76.05;;;11.90;42.10;;;;;;5462224;26;20002;-71
2024/04/11 02:27:29;;;;;;;477.08;77.88;;;11.90;42.10;;;;;;5451502;26;20015;-68
2024/04/11 02:30:00;;;;;;;506.20;87.80;;;11.90;42.00;;;;;;5431917;26;20014;-70
2024/04/11 02:32:28;;;;;;;482.85;79.32;;;11.90;42.10;;;;;;5454080;26;20078;-70
2024/04/11 02:35:05;;;;;;;537.08;95.13;;;11.90;42.10;;;;;;5425301;26;19998;-71
2024/04/11 02:37:33;;;;;;;531.53;95.47;;;11.90;42.10;;;;;;5417040;26;20013;-68
2024/04/11 02:40:10;;;;;;;481.15;78.70;;;11.90;42.10;;;;;;5414876;26;20480;-70
2024/04/11 02:42:38;;;;;;;495.30;83.13;;;11.90;42.10;;;;;;5447824;26;20006;-69
2024/04/11 02:45:14;;;;;;;471.75;77.80;;;11.90;42.10;;;;;;5456304;26;20579;-69
2024/04/11 02:47:43;;;;;;;666.17;146.90;;;11.80;42.00;;;;;;5447671;26;19998;-70
2024/04/11 02:50:16;;;;;;;479.50;78.95;;;11.80;42.00;;;;;;5458011;26;20428;-70
2024/04/11 02:52:46;;;;;;;477.48;78.60;;;11.70;42.10;;;;;;5421563;26;19999;-71
2024/04/11 02:55:17;;;;;;;466.50;76.82;;;11.70;42.10;;;;;;5456966;25;20011;-69
2024/04/11 02:57:48;;;;;;;667.25;146.52;;;11.70;42.20;;;;;;5420769;25;20002;-70
2024/04/11 03:00:16;;;;;;;485.05;81.13;;;11.70;42.20;;;;;;5420464;26;20404;-70
2024/04/11 03:02:47;;;;;;;474.25;77.40;;;11.70;42.20;;;;;;5425609;26;20340;-70
2024/04/11 03:05:16;;;;;;;476.92;79.38;;;11.70;42.20;;;;;;5446808;26;19999;-70
2024/04/11 03:07:49;;;;;;;645.65;135.07;;;11.70;42.30;;;;;;5451674;26;20464;-71
2024/04/11 03:10:19;;;;;;;469.63;77.85;;;11.60;42.20;;;;;;5422628;26;19998;-71
2024/04/11 03:12:51;;;;;;;483.52;80.05;;;11.60;42.30;;;;;;5413815;25;20007;-69
2024/04/11 03:15:20;;;;;;;490.92;81.30;;;11.60;42.30;;;;;;5438458;26;20491;-70
2024/04/11 03:17:51;;;;;;;684.97;153.27;;;11.60;42.30;;;;;;5465368;25;20459;-70
2024/04/11 03:20:19;;;;;;;487.05;81.68;;;11.60;42.40;;;;;;5466642;26;20460;-69
2024/04/11 03:22:49;;;;;;;489.92;82.30;;;11.60;43.00;;;;;;5428094;26;20452;-70
2024/04/11 03:25:20;;;;;;;559.47;102.20;;;11.60;42.40;;;;;;5459875;26;20023;-69
2024/04/11 03:27:51;;;;;;;631.30;128.93;;;11.60;42.40;;;;;;5463916;25;20348;-70
2024/04/11 03:30:19;;;;;;;468.92;77.93;;;11.60;42.40;;;;;;5445580;26;20090;-70
2024/04/11 03:32:50;;;;;;;473.20;77.80;;;11.60;42.40;;;;;;5447200;26;20033;-71
2024/04/11 03:35:18;;;;;;;483.27;82.03;;;11.70;42.40;;;;;;5476003;26;20456;-68
2024/04/11 03:37:50;;;;;;;692.10;155.80;;;11.70;42.60;;;;;;5423925;26;20025;-70
2024/04/11 03:40:22;;;;;;;504.00;91.90;;;11.60;42.60;;;;;;5428286;26;20013;-71
2024/04/11 03:42:53;;;;;;;502.50;93.78;;;11.50;42.60;;;;;;5391754;26;20072;-70
2024/04/11 03:45:26;;;;;;;507.10;88.05;;;11.50;42.70;;;;;;5387383;26;20885;-69
2024/04/11 03:47:57;;;;;;;463.85;76.82;;;11.50;43.40;;;;;;5385165;26;22041;-71
2024/04/11 03:50:29;;;;;;;547.80;96.50;;;11.50;42.70;;;;;;5388541;26;20019;-71
2024/04/11 03:53:11;;;;;;;473.63;78.45;;;11.40;42.70;;;;;;5384263;26;20007;-69
2024/04/11 03:55:47;;;;;;;651.90;131.93;;;11.40;42.70;;;;;;5401324;26;20426;-70
2024/04/11 03:58:19;;;;;;;512.95;89.47;;;11.40;42.80;;;;;;5387178;26;20017;-70
2024/04/11 04:00:47;;;;;;;507.67;85.68;;;11.40;42.80;;;;;;5382171;26;20020;-69
2024/04/11 04:03:18;;;;;;;546.30;99.10;;;11.30;42.80;;;;;;5387248;26;20016;-70
2024/04/11 04:05:46;;;;;;;673.75;151.65;;;11.30;42.80;;;;;;5388378;26;20007;-70
2024/04/11 04:08:17;;;;;;;480.63;80.28;;;11.30;42.90;;;;;;5396752;26;20011;-70
2024/04/11 04:10:48;;;;;;;474.27;78.43;;;11.30;42.80;;;;;;5382908;26;20024;-72
2024/04/11 04:13:20;;;;;;;487.48;81.82;;;11.30;42.80;;;;;;5405585;26;20013;-69
2024/04/11 04:15:49;;;;;;;686.13;155.93;;;11.30;42.70;;;;;;5381920;26;21393;-70
2024/04/11 04:18:20;;;;;;;488.35;82.13;;;11.30;42.70;;;;;;5404995;26;19999;-69
2024/04/11 04:20:54;;;;;;;485.27;82.30;;;11.30;42.70;;;;;;5393820;26;20142;-69
2024/04/11 04:23:25;;;;;;;499.33;84.68;;;11.30;42.70;;;;;;5365687;26;20000;-70
2024/04/11 04:25:59;;;;;;;500.58;100.07;;;11.30;42.70;;;;;;5374177;26;20007;-71
2024/04/11 04:28:33;;;;;;;492.20;81.95;;;11.30;42.80;;;;;;5376682;26;20450;-70
2024/04/11 04:31:13;;;;;;;514.17;88.97;;;11.30;42.70;;;;;;5380463;26;20010;-70
2024/04/11 04:33:47;;;;;;;684.38;153.88;;;11.30;42.80;;;;;;5352311;26;20007;-71
2024/04/11 04:36:18;;;;;;;528.00;91.40;;;11.30;42.70;;;;;;5380485;26;20012;-71
2024/04/11 04:38:49;;;;;;;505.42;89.82;;;11.30;42.80;;;;;;5373770;26;20008;-61
2024/04/11 04:41:21;;;;;;;547.33;106.97;;;11.40;42.80;;;;;;5407997;26;20456;-61
2024/04/11 04:43:54;;;;;;;569.45;122.78;;;11.30;43.10;;;;;;5438082;26;20031;-61
2024/04/11 04:46:24;;;;;;;484.40;87.88;;;11.30;43.70;;;;;;5420458;26;20764;-61
2024/04/11 04:48:55;;;;;;;486.00;90.38;;;11.40;43.20;;;;;;5442796;26;20334;-61
2024/04/11 04:51:26;;;;;;;522.50;100.80;;;11.40;43.10;;;;;;5445472;26;20534;-60
2024/04/11 04:53:59;;;;;;;485.83;94.68;;;11.50;43.00;;;;;;5407000;25;21599;-62
2024/04/11 04:56:32;;;;;;;494.02;96.50;;;11.60;43.00;;;;;;5448225;26;20010;-61
2024/04/11 04:59:04;;;;;;;485.08;90.25;;;11.70;43.00;;;;;;5458966;25;20013;-61
2024/04/11 05:01:35;;;;;;;581.85;118.25;;;11.70;42.90;;;;;;5432705;26;20002;-61
2024/04/11 05:04:08;;;;;;;517.17;98.03;;;11.80;42.80;;;;;;5409842;26;19998;-62
2024/04/11 05:06:37;;;;;;;504.58;95.05;;;11.80;42.80;;;;;;5450400;25;19994;-62
2024/04/11 05:09:10;;;;;;;492.98;91.53;;;11.90;42.80;;;;;;5418963;26;20416;-62
2024/04/11 05:11:44;;;;;;;759.60;181.02;;;11.90;42.70;;;;;;5426500;25;20320;-62
2024/04/11 05:14:16;;;;;;;499.85;91.25;;;11.90;42.80;;;;;;5438933;26;20003;-62
2024/04/11 05:16:44;;;;;;;516.28;95.97;;;12.00;42.80;;;;;;5439615;25;20078;-61
2024/04/11 05:19:15;;;;;;;525.53;99.63;;;12.10;42.80;;;;;;5463718;25;19998;-63
2024/04/11 05:21:45;;;;;;;687.25;168.48;;;12.20;42.90;;;;;;5446536;25;20013;-61
2024/04/11 05:24:16;;;;;;;506.27;99.38;;;12.30;42.80;;;;;;5461921;26;20801;-62
2024/04/11 05:26:50;;;;;;;537.95;102.00;;;12.30;42.80;;;;;;5434759;26;20070;-59
2024/04/11 05:29:21;;;;;;;530.50;103.65;;;12.30;42.90;;;;;;5401454;26;20444;-62
2024/04/11 05:31:50;;;;;;;577.92;127.07;;;12.30;42.90;;;;;;5445511;25;20101;-66
2024/04/11 05:34:21;;;;;;;508.95;104.53;;;12.20;42.90;;;;;;5454137;25;20013;-64
2024/04/11 05:36:51;;;;;;;546.65;105.93;;;12.30;43.10;;;;;;5454848;26;20026;-61
2024/04/11 05:39:22;;;;;;;591.72;121.63;;;12.30;43.10;;;;;;5463945;25;20026;-62
2024/04/11 05:41:55;;;;;;;514.75;112.70;;;12.40;43.10;;;;;;5414833;25;20483;-63
2024/04/11 05:44:27;;;;;;;512.85;92.22;;;12.60;43.10;;;;;;5411001;26;20087;-62
2024/04/11 05:46:55;;;;;;;521.58;94.30;;;12.70;43.00;;;;;;5457265;26;19998;-66
2024/04/11 05:49:26;;;;;;;516.55;94.28;;;12.90;43.00;;;;;;5452609;26;20032;-63
2024/04/11 05:51:56;;;;;;;531.90;101.40;;;13.00;43.60;;;;;;5458560;26;21311;-63
2024/04/11 05:54:27;;;;;;;601.67;116.60;;;13.20;42.90;;;;;;5446672;26;20009;-65
2024/04/11 05:57:01;;;;;;;527.63;97.35;;;13.30;42.80;;;;;;5466257;25;20489;-64
2024/04/11 05:59:36;;;;;;;546.58;101.47;;;13.40;42.80;;;;;;5450012;26;20015;-62
2024/04/11 06:02:06;;;;;;;578.55;112.15;;;13.50;42.80;;;;;;5453632;26;20138;-64
2024/04/11 06:04:37;;;;;;;513.80;95.15;;;13.60;43.20;;;;;;5442845;26;20006;-64
2024/04/11 06:07:05;;;;;;;497.85;90.63;;;13.70;42.70;;;;;;5455592;26;21299;-65
2024/04/11 06:09:39;;;;;;;646.05;140.05;;;13.80;42.80;;;;;;5439515;26;20591;-63
2024/04/11 06:12:11;;;;;;;550.42;103.40;;;13.80;42.60;;;;;;5450511;26;20123;-64
2024/04/11 06:14:42;;;;;;;514.83;95.97;;;13.90;42.80;;;;;;5449390;26;20009;-64
2024/04/11 06:17:12;;;;;;;502.67;95.32;;;14.10;42.70;;;;;;5456506;26;20071;-63
2024/04/11 06:19:43;;;;;;;684.88;166.23;;;14.20;42.50;;;;;;5404625;26;20059;-63
2024/04/11 06:22:12;;;;;;;561.70;109.50;;;14.40;42.50;;;;;;5451652;26;20010;-64
2024/04/11 06:24:42;;;;;;;503.80;94.65;;;14.50;42.40;;;;;;5445445;26;20003;-64
2024/04/11 06:27:13;;;;;;;511.30;96.20;;;14.60;42.40;;;;;;5422184;26;20055;-64
2024/04/11 06:29:44;;;;;;;667.83;160.90;;;14.70;42.30;;;;;;5447975;26;20449;-63
2024/04/11 06:32:15;;;;;;;517.97;98.47;;;14.80;42.30;;;;;;5451906;26;22556;-64
2024/04/11 06:34:52;;;;;;;499.73;94.03;;;14.90;42.20;;;;;;5435831;26;20039;-66
2024/04/11 06:37:22;;;;;;;576.00;114.63;;;15.00;42.30;;;;;;5455465;26;20006;-66
2024/04/11 06:39:55;;;;;;;583.75;128.63;;;15.20;42.40;;;;;;5454970;26;20735;-65
2024/04/11 06:42:26;;;;;;;550.30;107.18;;;15.30;42.20;;;;;;5450963;26;20009;-62
2024/04/11 06:44:57;;;;;;;528.92;102.85;;;15.40;42.20;;;;;;5431576;26;20741;-63
2024/04/11 06:47:25;;;;;;;511.25;97.60;;;15.60;42.10;;;;;;5439409;26;20040;-63
2024/04/11 06:50:06;;;;;;;518.85;98.10;;;15.70;42.10;;;;;;5469555;26;20006;-63
2024/04/11 06:52:36;;;;;;;561.40;109.68;;;15.90;42.70;;;;;;5452780;26;20704;-62
2024/04/11 06:55:08;;;;;;;517.60;100.55;;;16.10;42.10;;;;;;5464495;26;20539;-63
2024/04/11 06:57:40;;;;;;;724.95;168.82;;;16.30;42.00;;;;;;5458625;26;20413;-67
2024/04/11 07:00:14;;;;;;;520.97;103.63;;;16.50;41.90;;;;;;5460500;26;20006;-65
2024/04/11 07:02:46;;;;;;;594.25;122.97;;;16.70;41.80;;;;;;5442233;26;22706;-63
2024/04/11 07:05:20;;;;;;;499.77;97.03;;;16.80;41.80;;;;;;5455783;26;20030;-65
2024/04/11 07:07:54;;;;;;;680.63;160.43;;;16.90;41.70;;;;;;5449968;26;20529;-65
2024/04/11 07:10:36;;;;;;;510.17;100.57;;;17.00;41.60;;;;;;5462263;26;19994;-63
2024/04/11 07:13:13;;;;;;;563.67;117.18;;;17.20;41.60;;;;;;5412074;26;20009;-63
2024/04/11 07:15:44;;;;;;;739.70;198.52;;;17.30;41.50;;;;;;5455110;26;19998;-64
2024/04/11 07:18:14;;;;;;;522.28;105.25;;;17.40;41.60;;;;;;5464361;26;20006;-63
2024/04/11 07:20:50;;;;;;;532.30;108.75;;;17.60;41.60;;;;;;5462625;25;20021;-64
2024/04/11 07:23:18;;;;;;;582.45;128.48;;;18.20;42.40;;;;;;5445130;26;20444;-62
2024/04/11 07:25:50;;;;;;;699.85;187.02;;;19.80;42.80;;;;;;5453325;26;20575;-63
2024/04/11 07:28:25;;;;;;;546.22;127.63;;;21.60;41.90;;;;;;5459059;26;19994;-64
2024/04/11 07:30:56;;;;;;;575.17;139.00;;;23.10;41.40;;;;;;5445667;26;20001;-63
2024/04/11 07:33:26;;;;;;;599.08;155.57;;;24.60;40.00;;;;;;5449340;26;20038;-64
2024/04/11 07:35:58;;;;;;;541.63;151.52;;;26.30;39.40;;;;;;5450206;26;20083;-64
2024/04/11 07:38:26;;;;;;;530.67;158.95;;;27.70;38.10;;;;;;5434507;26;20006;-63
2024/04/11 07:40:59;;;;;;;548.45;170.23;;;28.40;36.90;;;;;;5473307;25;19998;-62
2024/04/11 07:43:31;;;;;;;546.20;172.93;;;28.70;36.40;;;;;;5451644;26;20005;-62
2024/04/11 07:46:04;;;;;;;555.33;183.13;;;28.60;35.70;;;;;;5466013;25;20009;-64
2024/04/11 07:48:35;;;;;;;558.63;187.98;;;28.80;35.70;;;;;;5467307;26;20210;-64
2024/04/11 07:51:09;;;;;;;540.10;195.18;;;29.30;35.70;;;;;;5474626;25;20016;-63
2024/04/11 07:53:38;;;;;;;723.25;264.05;;;29.90;35.20;;;;;;5437999;26;20106;-63
2024/04/11 07:56:09;;;;;;;549.30;206.65;;;30.30;34.80;;;;;;5471666;26;20009;-63
2024/04/11 07:58:40;;;;;;;574.35;219.52;;;30.60;34.20;;;;;;5469432;26;20002;-63
2024/04/11 08:01:11;;;;;;;564.58;225.55;;;31.00;34.30;;;;;;5475423;26;20002;-64
2024/04/11 08:03:39;;;;;;;748.63;329.75;;;31.60;34.60;;;;;;5401434;26;21058;-65
2024/04/11 08:06:11;;;;;;;572.08;248.93;;;31.80;34.20;;;;;;5410184;26;20018;-62
2024/04/11 08:08:40;;;;;;;569.13;253.90;;;32.00;34.30;;;;;;5464126;26;20653;-65
2024/04/11 08:11:11;;;;;;;624.92;282.48;;;32.40;33.40;;;;;;5437296;26;20010;-64
2024/04/11 08:13:43;;;;;;;763.53;353.73;;;32.80;32.60;;;;;;5438222;26;20026;-68
2024/04/11 08:16:15;;;;;;;615.83;291.33;;;33.00;32.60;;;;;;5457732;26;20114;-63
2024/04/11 08:18:45;;;;;;;583.35;290.70;;;33.60;32.00;;;;;;5457039;25;19998;-63
2024/04/11 08:21:16;;;;;;;573.22;298.13;;;34.00;31.70;;;;;;5461576;25;20451;-63
2024/04/11 08:23:45;;;;;;;794.75;390.83;;;34.60;31.50;;;;;;5436344;26;21287;-64
2024/04/11 08:26:16;;;;;;;586.15;319.95;;;35.40;31.20;;;;;;5429698;26;20002;-65
2024/04/11 08:28:47;;;;;;;592.08;328.90;;;36.40;30.80;;;;;;5460503;26;20002;-65
2024/04/11 08:31:18;;;;;;;597.88;349.25;;;37.00;29.90;;;;;;5464085;26;20002;-64
2024/04/11 08:33:48;;;;;;;769.53;432.10;;;37.50;29.90;;;;;;5429953;26;20005;-63
2024/04/11 08:36:19;;;;;;;625.03;372.73;;;38.20;29.60;;;;;;5425191;26;20006;-63
2024/04/11 08:38:47;;;;;;;607.30;377.33;;;38.80;29.30;;;;;;5452318;26;20017;-65
2024/04/11 08:41:20;;;;;;;601.50;372.60;;;39.10;28.60;;;;;;5457724;26;19998;-62
2024/04/11 08:43:51;;;;;;;783.50;450.00;;;39.10;28.30;;;;;;5424671;26;20573;-64
2024/04/11 08:46:22;;;;;;;590.55;376.02;;;39.00;27.90;;;;;;5464000;26;20471;-65
2024/04/11 08:48:52;;;;;;;603.47;384.00;;;39.10;28.20;;;;;;5444262;26;20005;-64
2024/04/11 08:51:24;;;;;;;593.70;410.60;;;39.30;28.10;;;;;;5443475;26;20077;-65
2024/04/11 08:53:54;;;;;;;619.60;423.00;;;39.70;28.10;;;;;;5433344;25;20002;-65
2024/04/11 08:56:35;;;;;;;598.03;431.70;;;40.30;28.00;;;;;;5465582;26;19994;-69
2024/04/11 08:59:09;;;;;;;609.10;436.73;;;40.90;27.80;;;;;;5448414;26;20456;-64
2024/04/11 09:01:40;;;;;;;869.67;515.10;;;41.20;27.10;;;;;;5397420;26;20049;-64
2024/04/11 09:04:08;;;;;;;598.22;424.27;;;40.70;26.70;;;;;;5448542;26;20009;-64
2024/04/11 09:06:42;;;;;;;587.40;418.75;;;40.80;27.20;;;;;;5463770;26;20338;-67
2024/04/11 09:09:16;;;;;;;617.63;456.55;;;40.20;26.40;;;;;;5450910;26;20023;-64
2024/04/11 09:11:47;;;;;;;836.17;493.48;;;39.60;26.70;;;;;;5421340;26;20657;-64
2024/04/11 09:14:18;;;;;;;621.53;411.17;;;39.10;26.90;;;;;;5440697;26;20010;-63
2024/04/11 09:16:49;;;;;;;599.75;386.38;;;38.90;26.90;;;;;;5457464;25;20481;-64
2024/04/11 09:19:22;;;;;;;684.28;406.73;;;38.90;26.90;;;;;;5447320;26;20026;-62
2024/04/11 09:21:53;;;;;;;742.58;444.25;;;39.20;27.00;;;;;;5453938;26;20002;-64
2024/04/11 09:24:23;;;;;;;600.67;392.52;;;39.40;26.70;;;;;;5438080;26;19998;-66
2024/04/11 09:26:56;;;;;;;644.25;422.25;;;39.70;26.70;;;;;;5442474;26;20021;-64
2024/04/11 09:29:29;;;;;;;597.28;406.05;;;39.80;26.30;;;;;;5463397;26;20051;-65
2024/04/11 09:32:03;;;;;;;689.50;432.30;;;39.70;26.00;;;;;;5433145;26;21751;-61
2024/04/11 09:34:32;;;;;;;614.22;395.92;;;39.60;26.20;;;;;;5412139;26;19998;-63
2024/04/11 09:37:04;;;;;;;619.80;404.10;;;39.60;26.30;;;;;;5441965;25;20003;-66
2024/04/11 09:39:46;;;;;;;648.95;409.45;;;39.60;26.20;;;;;;5438581;26;20015;-65
2024/04/11 09:42:19;;;;;;;652.40;403.25;;;39.40;25.90;;;;;;5441903;26;20020;-63
2024/04/11 09:44:53;;;;;;;594.10;387.58;;;39.20;26.10;;;;;;5455394;26;20009;-65
2024/04/11 09:47:31;;;;;;;598.83;385.60;;;39.20;25.80;;;;;;5418425;26;20006;-66
2024/04/11 09:50:09;;;;;;;606.03;388.08;;;39.20;25.90;;;;;;5455035;26;19999;-65
2024/04/11 09:52:44;;;;;;;605.65;391.45;;;39.60;25.90;;;;;;5447387;26;20002;-65
2024/04/11 09:55:30;;;;;;;657.50;421.85;;;40.20;25.80;;;;;;5438147;25;20068;-64
2024/04/11 09:58:13;;;;;;;617.57;407.70;;;40.60;25.40;;;;;;5455161;26;21071;-64
2024/04/11 10:01:04;;;;;;;611.83;410.83;;;40.90;25.20;;;;;;5450943;26;20036;-64
2024/04/11 10:03:44;;;;;;;706.35;449.02;;;41.00;24.80;;;;;;5426263;26;20666;-63
2024/04/11 10:06:14;;;;;;;593.40;403.45;;;41.10;24.70;;;;;;5417438;26;20014;-63
2024/04/11 10:08:49;;;;;;;613.63;414.98;;;40.90;24.90;;;;;;5453336;25;20011;-63
2024/04/11 10:11:18;;;;;;;621.42;418.55;;;40.60;24.20;;;;;;5452365;25;20003;-64
2024/04/11 10:13:55;;;;;;;779.45;468.08;;;40.20;24.00;;;;;;5434543;26;20002;-63
2024/04/11 10:16:29;;;;;;;648.88;414.08;;;40.00;24.30;;;;;;5427792;26;20614;-63
2024/04/11 10:19:04;;;;;;;603.87;391.43;;;39.80;24.20;;;;;;5453855;26;19994;-63
2024/04/11 10:21:40;;;;;;;768.67;450.23;;;39.70;24.90;;;;;;5444154;26;20355;-61
2024/04/11 10:24:31;;;;;;;590.27;389.40;;;39.90;24.40;;;;;;5446880;26;20049;-64
2024/04/11 10:27:10;;;;;;;627.10;406.88;;;40.30;24.40;;;;;;5447480;26;20017;-63
2024/04/11 10:29:46;;;;;;;796.92;474.40;;;40.40;24.00;;;;;;5448382;25;19998;-64
2024/04/11 10:32:26;;;;;;;634.75;403.35;;;40.20;24.20;;;;;;5414006;26;20368;-64
2024/04/11 10:34:58;;;;;;;623.70;405.27;;;40.30;23.90;;;;;;5448970;26;20442;-63
2024/04/11 10:37:33;;;;;;;614.63;396.95;;;40.20;23.70;;;;;;5464150;26;20002;-63
2024/04/11 10:40:02;;;;;;;605.20;391.25;;;40.00;23.60;;;;;;5457156;26;20005;-64
2024/04/11 10:42:43;;;;;;;631.58;396.58;;;39.70;23.60;;;;;;5442244;26;20002;-65
2024/04/11 10:45:20;;;;;;;606.05;380.00;;;39.60;23.60;;;;;;5457828;26;20018;-64
2024/04/11 10:47:57;;;;;;;675.10;412.45;;;39.40;23.60;;;;;;5444765;26;20873;-69
2024/04/11 10:50:27;;;;;;;613.63;380.58;;;39.60;23.60;;;;;;5454601;26;20409;-63
2024/04/11 10:52:58;;;;;;;617.13;382.02;;;39.60;23.40;;;;;;5443914;26;20021;-64
2024/04/11 10:55:28;;;;;;;594.58;368.88;;;39.30;23.20;;;;;;5459516;25;19998;-63
2024/04/11 10:58:13;;;;;;;596.15;358.10;;;39.10;23.20;;;;;;5443699;25;20025;-64
2024/04/11 11:06:34;;;;;;;610.72;318.60;;;37.80;23.10;;;;;;5446732;26;22697;-66
2024/04/11 11:09:10;;;;;;;601.78;301.80;;;37.00;23.60;;;;;;5457898;26;20006;-64
2024/04/11 11:11:44;;;;;;;833.92;389.67;;;36.50;23.90;;;;;;5450265;26;20006;-63
2024/04/11 11:14:17;;;;;;;578.45;281.67;;;35.70;24.00;;;;;;5447757;26;20025;-67
2024/04/11 11:16:50;;;;;;;568.90;265.88;;;34.40;24.40;;;;;;5465665;26;20020;-63
2024/04/11 11:19:22;;;;;;;584.38;256.00;;;32.80;24.70;;;;;;5458443;26;20007;-63
2024/04/11 11:21:59;;;;;;;679.53;276.52;;;31.30;25.40;;;;;;5442436;26;20016;-62
2024/04/11 11:24:29;;;;;;;570.45;224.13;;;30.10;26.00;;;;;;5455323;26;19999;-63
2024/04/11 11:27:01;;;;;;;546.60;202.07;;;29.10;26.60;;;;;;5458999;26;20013;-64
2024/04/11 11:29:30;;;;;;;539.15;188.35;;;28.10;26.80;;;;;;5453253;26;19998;-63
2024/04/11 11:32:12;;;;;;;591.63;190.98;;;27.30;27.20;;;;;;5452370;26;20018;-63
2024/04/11 11:34:46;;;;;;;554.85;175.50;;;26.60;27.90;;;;;;5447624;26;20141;-66
2024/04/11 11:37:21;;;;;;;584.53;177.27;;;25.90;27.80;;;;;;5454495;26;20034;-64
2024/04/11 11:39:50;;;;;;;686.33;223.95;;;25.40;28.20;;;;;;5446434;26;20721;-64
2024/04/11 11:42:23;;;;;;;630.92;186.20;;;25.10;28.50;;;;;;5444158;26;20078;-64
2024/04/11 11:47:49;;;;;;;723.45;239.50;;;24.70;28.80;;;;;;5394702;26;19994;-64
2024/04/11 11:50:35;;;;;;;557.55;159.32;;;24.50;29.00;;;;;;5461432;26;20704;-64
2024/04/11 11:55:58;;;;;;;;;;;24.30;29.30;;;;;;5420023;26;20010;-64
2024/04/11 11:58:35;;;;;;;559.63;149.88;;;24.40;29.40;;;;;;5458104;26;19936;-63
2024/04/11 12:01:19;;;;;;;550.35;150.68;;;24.40;29.50;;;;;;5462166;26;20780;-63
2024/04/11 12:03:55;;;;;;;726.95;227.25;;;24.40;29.50;;;;;;5428718;26;20840;-62
2024/04/11 12:06:33;;;;;;;557.72;153.98;;;24.40;29.50;;;;;;5462969;26;20020;-67
2024/04/11 12:09:10;;;;;;;535.10;148.48;;;24.50;29.50;;;;;;5466126;26;20054;-63
2024/04/11 12:12:07;;;;;;;720.15;215.85;;;24.50;29.50;;;;;;5466622;26;20005;-65
2024/04/11 12:14:35;;;;;;;610.20;174.38;;;24.50;29.50;;;;;;5446311;26;20006;-66
2024/04/11 12:17:10;;;;;;;542.28;151.32;;;24.50;29.60;;;;;;5472396;26;19994;-64
2024/04/11 12:19:40;;;;;;;730.40;221.55;;;24.40;29.50;;;;;;5441228;25;20067;-62
2024/04/11 12:22:16;;;;;;;596.17;174.75;;;24.40;29.70;;;;;;5447296;26;20006;-63
2024/04/11 12:24:45;;;;;;;624.72;185.77;;;24.60;29.80;;;;;;5449149;26;20012;-62
2024/04/11 12:27:16;;;;;;;545.30;151.65;;;24.80;29.70;;;;;;5463704;26;20006;-63
2024/04/11 12:29:44;;;;;;;723.35;226.95;;;24.90;29.70;;;;;;5454868;25;20023;-66
2024/04/11 12:32:18;;;;;;;608.70;179.25;;;24.90;29.60;;;;;;5423200;26;20017;-64
2024/04/11 12:34:47;;;;;;;537.75;156.88;;;24.90;29.50;;;;;;5425420;26;20002;-64
2024/04/11 12:37:24;;;;;;;574.33;167.27;;;24.80;29.70;;;;;;5464450;26;20563;-63
2024/04/11 12:39:53;;;;;;;583.75;185.85;;;24.80;29.70;;;;;;5464246;26;19998;-63
2024/04/11 12:42:29;;;;;;;546.38;160.70;;;24.80;29.80;;;;;;5430777;26;20344;-64
2024/04/11 12:45:02;;;;;;;;;;;24.80;29.80;;;;;;5439192;26;19998;-63
2024/04/11 12:47:48;;;;;;;560.35;158.65;;;24.80;29.90;;;;;;5465729;26;19924;-61
2024/04/11 12:50:21;;;;;;;549.70;154.57;;;24.70;29.90;;;;;;5474348;26;20005;-64